Horseneck Beach, Massachusetts
Current Conditions -  °F | °C
As of 4:53 AM on Monday 26 Jan 2015 (Local Time) from KEWB Reporting Station
Scattered Clouds Scattered Clouds  
Wind Chill:   Ceiling: Unl
Heat Index: 19°   Visibility: 10mi
Dew Point:   Wind: 8mph
Humidity: 52%   Direction: 20°NNE
Pressure: 30.07"   Gusts: NA
Location:  41.6022°N, 71.0828°W
Report Text: KEWB 260953Z AUTO 02007KT 10SM SCT110 M07/M16 A3007 RMK AO2 SLP183 T10721156
Loading
Personal Weather Stations






























Interactive Weather Map New forecast layout! Learn more

10-Day Weather Forecast

Advertisements
Track Severe Weather on mobile